sensor_id;sensor_type;location;lat;lon;timestamp;pressure;altitude;pressure_sealevel;temperature;humidity
24336;BME280;33098;52.400;16.880;2022-09-12T00:01:09;100767.27;;;15.03;86.19
24336;BME280;33098;52.400;16.880;2022-09-12T00:03:39;100764.19;;;15.03;86.16
24336;BME280;33098;52.400;16.880;2022-09-12T00:06:09;100762.39;;;15.00;86.17
24336;BME280;33098;52.400;16.880;2022-09-12T00:08:36;100764.05;;;14.99;86.24
24336;BME280;33098;52.400;16.880;2022-09-12T00:11:06;100765.10;;;14.97;86.18
24336;BME280;33098;52.400;16.880;2022-09-12T00:13:33;100762.08;;;14.91;86.15
24336;BME280;33098;52.400;16.880;2022-09-12T00:15:59;100759.58;;;14.88;86.22
24336;BME280;33098;52.400;16.880;2022-09-12T00:18:26;100759.42;;;14.81;86.13
24336;BME280;33098;52.400;16.880;2022-09-12T00:20:53;100760.86;;;14.77;86.33
24336;BME280;33098;52.400;16.880;2022-09-12T00:23:19;100758.64;;;14.78;86.47
24336;BME280;33098;52.400;16.880;2022-09-12T00:25:47;100761.03;;;14.69;86.14
24336;BME280;33098;52.400;16.880;2022-09-12T00:28:15;100760.96;;;14.58;86.15
24336;BME280;33098;52.400;16.880;2022-09-12T00:30:46;100758.02;;;14.49;86.26
24336;BME280;33098;52.400;16.880;2022-09-12T00:33:15;100759.45;;;14.39;86.44
24336;BME280;33098;52.400;16.880;2022-09-12T00:35:51;100759.20;;;14.34;86.76
24336;BME280;33098;52.400;16.880;2022-09-12T00:38:20;100760.44;;;14.30;86.94
24336;BME280;33098;52.400;16.880;2022-09-12T00:40:47;100758.84;;;14.24;87.16
24336;BME280;33098;52.400;16.880;2022-09-12T00:43:39;100761.23;;;14.23;87.48
24336;BME280;33098;52.400;16.880;2022-09-12T00:46:14;100765.66;;;14.27;87.74
24336;BME280;33098;52.400;16.880;2022-09-12T00:48:48;100760.84;;;14.21;87.66
24336;BME280;33098;52.400;16.880;2022-09-12T00:51:17;100759.61;;;14.09;87.61
24336;BME280;33098;52.400;16.880;2022-09-12T00:53:47;100761.06;;;14.01;87.69
24336;BME280;33098;52.400;16.880;2022-09-12T00:56:17;100765.02;;;13.94;87.90
24336;BME280;33098;52.400;16.880;2022-09-12T00:58:56;100760.73;;;13.92;88.21
24336;BME280;33098;52.400;16.880;2022-09-12T01:01:25;100768.48;;;13.85;88.35
24336;BME280;33098;52.400;16.880;2022-09-12T01:03:52;100764.94;;;13.78;88.43
24336;BME280;33098;52.400;16.880;2022-09-12T01:06:29;100768.31;;;13.70;88.52
24336;BME280;33098;52.400;16.880;2022-09-12T01:08:58;100768.81;;;13.69;88.97
24336;BME280;33098;52.400;16.880;2022-09-12T01:11:25;100764.37;;;13.67;89.15
24336;BME280;33098;52.400;16.880;2022-09-12T01:13:51;100764.03;;;13.64;89.42
24336;BME280;33098;52.400;16.880;2022-09-12T01:16:19;100766.59;;;13.55;89.53
24336;BME280;33098;52.400;16.880;2022-09-12T01:19:24;100768.79;;;13.50;89.73
24336;BME280;33098;52.400;16.880;2022-09-12T01:24:51;100763.70;;;13.49;90.38
24336;BME280;33098;52.400;16.880;2022-09-12T01:32:34;100766.22;;;13.60;91.06
24336;BME280;33098;52.400;16.880;2022-09-12T01:35:16;100769.05;;;13.60;91.16
24336;BME280;33098;52.400;16.880;2022-09-12T01:46:15;100771.02;;;13.88;92.03
24336;BME280;33098;52.400;16.880;2022-09-12T01:49:01;100773.54;;;13.95;91.92
24336;BME280;33098;52.400;16.880;2022-09-12T01:51:41;100773.61;;;13.98;91.54
24336;BME280;33098;52.400;16.880;2022-09-12T01:54:15;100776.20;;;13.91;91.22
24336;BME280;33098;52.400;16.880;2022-09-12T01:56:48;100774.95;;;13.86;91.23
24336;BME280;33098;52.400;16.880;2022-09-12T02:02:25;100771.08;;;13.90;91.36
24336;BME280;33098;52.400;16.880;2022-09-12T02:04:58;100770.48;;;13.88;91.36
24336;BME280;33098;52.400;16.880;2022-09-12T02:08:00;100768.27;;;13.87;91.29
24336;BME280;33098;52.400;16.880;2022-09-12T02:10:32;100771.30;;;13.85;91.38
24336;BME280;33098;52.400;16.880;2022-09-12T02:13:12;100772.71;;;13.83;91.27
24336;BME280;33098;52.400;16.880;2022-09-12T02:15:46;100777.70;;;13.80;91.33
24336;BME280;33098;52.400;16.880;2022-09-12T02:18:17;100774.33;;;13.73;91.21
24336;BME280;33098;52.400;16.880;2022-09-12T02:20:47;100770.89;;;13.68;91.19
24336;BME280;33098;52.400;16.880;2022-09-12T02:23:21;100769.35;;;13.69;91.49
24336;BME280;33098;52.400;16.880;2022-09-12T02:25:51;100770.44;;;13.67;91.48
24336;BME280;33098;52.400;16.880;2022-09-12T02:28:32;100771.33;;;13.61;91.55
24336;BME280;33098;52.400;16.880;2022-09-12T02:31:05;100771.50;;;13.61;91.58
24336;BME280;33098;52.400;16.880;2022-09-12T02:33:47;100769.27;;;13.62;91.74
24336;BME280;33098;52.400;16.880;2022-09-12T02:36:39;100773.55;;;13.62;91.90
24336;BME280;33098;52.400;16.880;2022-09-12T02:39:08;100774.52;;;13.67;92.16
24336;BME280;33098;52.400;16.880;2022-09-12T02:41:35;100774.39;;;13.70;92.07
24336;BME280;33098;52.400;16.880;2022-09-12T02:44:03;100776.20;;;13.76;92.36
24336;BME280;33098;52.400;16.880;2022-09-12T02:46:42;100769.95;;;13.76;92.26
24336;BME280;33098;52.400;16.880;2022-09-12T02:49:09;100769.88;;;13.75;92.21
24336;BME280;33098;52.400;16.880;2022-09-12T02:51:36;100772.85;;;13.74;92.06
24336;BME280;33098;52.400;16.880;2022-09-12T02:54:04;100771.74;;;13.64;91.95
24336;BME280;33098;52.400;16.880;2022-09-12T02:56:32;100770.95;;;13.61;92.31
24336;BME280;33098;52.400;16.880;2022-09-12T02:59:06;100771.65;;;13.63;92.46
24336;BME280;33098;52.400;16.880;2022-09-12T03:01:59;100774.05;;;13.60;92.31
24336;BME280;33098;52.400;16.880;2022-09-12T03:04:52;100774.54;;;13.56;92.45
24336;BME280;33098;52.400;16.880;2022-09-12T03:16:14;100772.98;;;13.70;93.03
24336;BME280;33098;52.400;16.880;2022-09-12T03:18:49;100772.58;;;13.71;92.87
24336;BME280;33098;52.400;16.880;2022-09-12T03:24:17;100776.36;;;13.74;93.05
24336;BME280;33098;52.400;16.880;2022-09-12T03:26:49;100776.33;;;13.75;93.07
24336;BME280;33098;52.400;16.880;2022-09-12T03:29:20;100776.90;;;13.72;92.96
24336;BME280;33098;52.400;16.880;2022-09-12T03:31:54;100781.21;;;13.72;93.20
24336;BME280;33098;52.400;16.880;2022-09-12T03:34:22;100777.73;;;13.71;93.29
24336;BME280;33098;52.400;16.880;2022-09-12T03:36:50;100778.92;;;13.73;93.39
24336;BME280;33098;52.400;16.880;2022-09-12T03:39:17;100781.04;;;13.76;93.61
24336;BME280;33098;52.400;16.880;2022-09-12T03:41:44;100782.59;;;13.81;93.83
24336;BME280;33098;52.400;16.880;2022-09-12T03:44:10;100782.09;;;13.82;93.98
24336;BME280;33098;52.400;16.880;2022-09-12T03:46:37;100781.90;;;13.85;94.05
24336;BME280;33098;52.400;16.880;2022-09-12T03:49:03;100786.91;;;13.90;94.37
24336;BME280;33098;52.400;16.880;2022-09-12T03:51:31;100788.40;;;13.98;94.51
24336;BME280;33098;52.400;16.880;2022-09-12T03:53:57;100785.92;;;14.04;94.79
24336;BME280;33098;52.400;16.880;2022-09-12T03:56:24;100788.91;;;14.13;94.88
24336;BME280;33098;52.400;16.880;2022-09-12T03:58:51;100783.23;;;14.18;94.94
24336;BME280;33098;52.400;16.880;2022-09-12T04:01:18;100785.13;;;14.21;94.71
24336;BME280;33098;52.400;16.880;2022-09-12T04:03:48;100787.75;;;14.21;94.77
24336;BME280;33098;52.400;16.880;2022-09-12T04:06:18;100787.92;;;14.24;94.76
24336;BME280;33098;52.400;16.880;2022-09-12T04:08:52;100787.34;;;14.25;94.79
24336;BME280;33098;52.400;16.880;2022-09-12T04:11:21;100780.27;;;14.26;94.70
24336;BME280;33098;52.400;16.880;2022-09-12T04:13:49;100782.55;;;14.28;94.78
24336;BME280;33098;52.400;16.880;2022-09-12T04:16:16;100780.42;;;14.32;95.00
24336;BME280;33098;52.400;16.880;2022-09-12T04:18:44;100781.71;;;14.40;95.12
24336;BME280;33098;52.400;16.880;2022-09-12T04:21:19;100785.55;;;14.44;95.13
24336;BME280;33098;52.400;16.880;2022-09-12T04:23:47;100785.89;;;14.45;95.04
24336;BME280;33098;52.400;16.880;2022-09-12T04:26:15;100783.76;;;14.47;95.06
24336;BME280;33098;52.400;16.880;2022-09-12T04:28:43;100780.02;;;14.52;95.11
24336;BME280;33098;52.400;16.880;2022-09-12T04:31:14;100781.92;;;14.51;94.96
24336;BME280;33098;52.400;16.880;2022-09-12T04:33:43;100786.13;;;14.50;94.97
24336;BME280;33098;52.400;16.880;2022-09-12T04:36:15;100786.16;;;14.53;95.13
24336;BME280;33098;52.400;16.880;2022-09-12T04:38:44;100785.55;;;14.57;95.23
24336;BME280;33098;52.400;16.880;2022-09-12T04:41:28;100785.63;;;14.64;95.37
24336;BME280;33098;52.400;16.880;2022-09-12T04:44:00;100788.09;;;14.71;95.39
24336;BME280;33098;52.400;16.880;2022-09-12T04:46:33;100787.50;;;14.71;95.30
24336;BME280;33098;52.400;16.880;2022-09-12T04:49:01;100787.98;;;14.68;95.08
24336;BME280;33098;52.400;16.880;2022-09-12T04:51:30;100789.38;;;14.70;95.26
24336;BME280;33098;52.400;16.880;2022-09-12T04:54:05;100788.94;;;14.73;95.23
24336;BME280;33098;52.400;16.880;2022-09-12T04:56:36;100789.02;;;14.70;95.16
24336;BME280;33098;52.400;16.880;2022-09-12T04:59:03;100791.87;;;14.74;95.36
24336;BME280;33098;52.400;16.880;2022-09-12T05:01:30;100793.05;;;14.73;95.22
24336;BME280;33098;52.400;16.880;2022-09-12T05:03:57;100796.55;;;14.76;95.44
24336;BME280;33098;52.400;16.880;2022-09-12T05:06:28;100790.25;;;14.80;95.53
24336;BME280;33098;52.400;16.880;2022-09-12T05:08:56;100792.86;;;14.83;95.70
24336;BME280;33098;52.400;16.880;2022-09-12T05:11:26;100793.70;;;14.85;95.74
24336;BME280;33098;52.400;16.880;2022-09-12T05:13:53;100796.48;;;14.86;95.69
24336;BME280;33098;52.400;16.880;2022-09-12T05:16:20;100796.08;;;14.83;95.57
24336;BME280;33098;52.400;16.880;2022-09-12T05:18:47;100800.48;;;14.81;95.65
24336;BME280;33098;52.400;16.880;2022-09-12T05:21:18;100803.38;;;14.89;96.02
24336;BME280;33098;52.400;16.880;2022-09-12T05:23:45;100808.36;;;14.99;96.36
24336;BME280;33098;52.400;16.880;2022-09-12T05:26:15;100811.58;;;15.07;96.42
24336;BME280;33098;52.400;16.880;2022-09-12T05:28:42;100811.69;;;15.12;96.25
24336;BME280;33098;52.400;16.880;2022-09-12T05:31:14;100816.40;;;15.13;96.14
24336;BME280;33098;52.400;16.880;2022-09-12T05:33:44;100817.42;;;15.17;96.23
24336;BME280;33098;52.400;16.880;2022-09-12T05:36:13;100815.06;;;15.21;96.30
24336;BME280;33098;52.400;16.880;2022-09-12T05:38:40;100818.96;;;15.28;96.28
24336;BME280;33098;52.400;16.880;2022-09-12T05:41:08;100815.80;;;15.33;96.29
24336;BME280;33098;52.400;16.880;2022-09-12T05:43:36;100813.23;;;15.38;96.20
24336;BME280;33098;52.400;16.880;2022-09-12T05:46:17;100815.84;;;15.42;96.12
24336;BME280;33098;52.400;16.880;2022-09-12T05:48:46;100820.74;;;15.47;96.08
24336;BME280;33098;52.400;16.880;2022-09-12T05:51:18;100825.88;;;15.51;95.88
24336;BME280;33098;52.400;16.880;2022-09-12T05:53:48;100830.01;;;15.51;95.61
24336;BME280;33098;52.400;16.880;2022-09-12T05:56:18;100830.90;;;15.53;95.63
24336;BME280;33098;52.400;16.880;2022-09-12T05:58:47;100828.91;;;15.58;95.55
24336;BME280;33098;52.400;16.880;2022-09-12T06:01:15;100833.27;;;15.59;95.42
24336;BME280;33098;52.400;16.880;2022-09-12T06:03:50;100830.52;;;15.62;95.39
24336;BME280;33098;52.400;16.880;2022-09-12T06:06:19;100830.61;;;15.66;95.27
24336;BME280;33098;52.400;16.880;2022-09-12T06:08:49;100835.35;;;15.65;94.91
24336;BME280;33098;52.400;16.880;2022-09-12T06:11:19;100836.64;;;15.65;94.86
24336;BME280;33098;52.400;16.880;2022-09-12T06:13:45;100833.23;;;15.67;94.86
24336;BME280;33098;52.400;16.880;2022-09-12T06:16:15;100842.11;;;15.70;94.80
24336;BME280;33098;52.400;16.880;2022-09-12T06:18:46;100839.45;;;15.73;94.87
24336;BME280;33098;52.400;16.880;2022-09-12T06:21:13;100843.20;;;15.77;94.88
24336;BME280;33098;52.400;16.880;2022-09-12T06:23:40;100841.22;;;15.81;94.83
24336;BME280;33098;52.400;16.880;2022-09-12T06:26:09;100845.69;;;15.77;94.49
24336;BME280;33098;52.400;16.880;2022-09-12T06:28:38;100849.02;;;15.78;94.67
24336;BME280;33098;52.400;16.880;2022-09-12T06:31:10;100842.17;;;15.80;94.74
24336;BME280;33098;52.400;16.880;2022-09-12T06:33:40;100844.27;;;15.89;94.98
24336;BME280;33098;52.400;16.880;2022-09-12T06:38:35;100840.88;;;15.98;94.95
24336;BME280;33098;52.400;16.880;2022-09-12T06:41:03;100838.08;;;16.01;94.98
24336;BME280;33098;52.400;16.880;2022-09-12T06:43:30;100843.27;;;16.03;94.86
24336;BME280;33098;52.400;16.880;2022-09-12T06:45:57;100841.23;;;16.08;95.00
24336;BME280;33098;52.400;16.880;2022-09-12T06:48:24;100847.88;;;16.09;94.99
24336;BME280;33098;52.400;16.880;2022-09-12T06:50:58;100845.66;;;16.14;95.14
24336;BME280;33098;52.400;16.880;2022-09-12T06:53:26;100838.83;;;16.18;95.26
24336;BME280;33098;52.400;16.880;2022-09-12T06:55:56;100840.30;;;16.23;95.27
24336;BME280;33098;52.400;16.880;2022-09-12T06:58:23;100846.73;;;16.27;95.25
24336;BME280;33098;52.400;16.880;2022-09-12T07:00:50;100844.81;;;16.32;95.23
24336;BME280;33098;52.400;16.880;2022-09-12T07:03:17;100845.22;;;16.41;95.34
24336;BME280;33098;52.400;16.880;2022-09-12T07:05:44;100841.73;;;16.45;95.10
24336;BME280;33098;52.400;16.880;2022-09-12T07:08:11;100846.58;;;16.47;94.68
24336;BME280;33098;52.400;16.880;2022-09-12T07:10:37;100845.45;;;16.47;94.59
24336;BME280;33098;52.400;16.880;2022-09-12T07:13:04;100842.05;;;16.53;94.60
24336;BME280;33098;52.400;16.880;2022-09-12T07:15:33;100842.39;;;16.57;94.54
24336;BME280;33098;52.400;16.880;2022-09-12T07:18:00;100842.75;;;16.59;94.43
24336;BME280;33098;52.400;16.880;2022-09-12T07:20:27;100844.98;;;16.66;94.47
24336;BME280;33098;52.400;16.880;2022-09-12T07:22:53;100845.41;;;16.70;94.46
24336;BME280;33098;52.400;16.880;2022-09-12T07:25:20;100843.98;;;16.76;94.45
24336;BME280;33098;52.400;16.880;2022-09-12T07:27:47;100845.99;;;16.82;94.40
24336;BME280;33098;52.400;16.880;2022-09-12T07:30:13;100848.47;;;16.85;94.16
24336;BME280;33098;52.400;16.880;2022-09-12T07:32:40;100854.60;;;16.82;93.97
24336;BME280;33098;52.400;16.880;2022-09-12T07:35:06;100853.62;;;16.85;93.90
24336;BME280;33098;52.400;16.880;2022-09-12T07:37:33;100858.52;;;16.90;93.78
24336;BME280;33098;52.400;16.880;2022-09-12T07:40:00;100859.31;;;16.93;93.87
24336;BME280;33098;52.400;16.880;2022-09-12T07:42:27;100859.66;;;16.92;93.64
24336;BME280;33098;52.400;16.880;2022-09-12T07:44:54;100860.66;;;16.98;93.90
24336;BME280;33098;52.400;16.880;2022-09-12T07:47:20;100859.55;;;17.04;93.75
24336;BME280;33098;52.400;16.880;2022-09-12T07:49:47;100863.34;;;17.12;93.96
24336;BME280;33098;52.400;16.880;2022-09-12T07:52:13;100864.87;;;17.22;94.00
24336;BME280;33098;52.400;16.880;2022-09-12T07:54:40;100863.27;;;17.29;93.94
24336;BME280;33098;52.400;16.880;2022-09-12T07:57:06;100863.63;;;17.38;93.95
24336;BME280;33098;52.400;16.880;2022-09-12T07:59:33;100863.94;;;17.46;93.75
24336;BME280;33098;52.400;16.880;2022-09-12T08:01:59;100864.12;;;17.53;93.51
24336;BME280;33098;52.400;16.880;2022-09-12T08:04:26;100865.58;;;17.60;93.33
24336;BME280;33098;52.400;16.880;2022-09-12T08:06:52;100869.66;;;17.66;92.98
24336;BME280;33098;52.400;16.880;2022-09-12T08:09:19;100873.19;;;17.68;92.65
24336;BME280;33098;52.400;16.880;2022-09-12T08:11:45;100873.20;;;17.71;92.48
24336;BME280;33098;52.400;16.880;2022-09-12T08:14:11;100873.34;;;17.70;92.16
24336;BME280;33098;52.400;16.880;2022-09-12T08:16:38;100873.59;;;17.68;91.61
24336;BME280;33098;52.400;16.880;2022-09-12T08:19:04;100878.00;;;17.71;91.48
24336;BME280;33098;52.400;16.880;2022-09-12T08:21:32;100878.70;;;17.74;91.26
24336;BME280;33098;52.400;16.880;2022-09-12T08:24:03;100881.27;;;17.78;91.23
24336;BME280;33098;52.400;16.880;2022-09-12T08:26:33;100884.90;;;17.84;90.90
24336;BME280;33098;52.400;16.880;2022-09-12T08:29:00;100883.41;;;17.86;90.61
24336;BME280;33098;52.400;16.880;2022-09-12T08:31:27;100879.06;;;17.85;90.23
24336;BME280;33098;52.400;16.880;2022-09-12T08:33:55;100884.44;;;17.85;90.14
24336;BME280;33098;52.400;16.880;2022-09-12T08:36:24;100882.64;;;17.87;90.09
24336;BME280;33098;52.400;16.880;2022-09-12T08:39:00;100881.52;;;17.89;89.86
24336;BME280;33098;52.400;16.880;2022-09-12T08:41:31;100880.30;;;17.92;89.62
24336;BME280;33098;52.400;16.880;2022-09-12T08:47:20;100877.09;;;18.04;89.22
24336;BME280;33098;52.400;16.880;2022-09-12T08:55:31;100878.20;;;18.09;88.59
24336;BME280;33098;52.400;16.880;2022-09-12T08:58:00;100877.99;;;18.14;88.37
24336;BME280;33098;52.400;16.880;2022-09-12T09:00:36;100875.52;;;18.21;87.99
24336;BME280;33098;52.400;16.880;2022-09-12T09:03:58;100871.38;;;18.25;87.73
24336;BME280;33098;52.400;16.880;2022-09-12T09:06:11;100873.05;;;18.36;87.74
24336;BME280;33098;52.400;16.880;2022-09-12T09:09:03;100868.67;;;18.43;87.10
24336;BME280;33098;52.400;16.880;2022-09-12T09:11:51;100871.91;;;18.49;86.77
24336;BME280;33098;52.400;16.880;2022-09-12T09:14:37;100873.83;;;18.53;86.12
24336;BME280;33098;52.400;16.880;2022-09-12T09:17:23;100876.74;;;18.52;85.53
24336;BME280;33098;52.400;16.880;2022-09-12T09:20:41;100871.34;;;18.39;84.76
24336;BME280;33098;52.400;16.880;2022-09-12T09:22:45;100865.20;;;18.32;84.85
24336;BME280;33098;52.400;16.880;2022-09-12T09:25:19;100862.85;;;18.32;84.41
24336;BME280;33098;52.400;16.880;2022-09-12T09:27:52;100859.00;;;18.29;84.47
24336;BME280;33098;52.400;16.880;2022-09-12T09:30:22;100857.41;;;18.36;84.84
24336;BME280;33098;52.400;16.880;2022-09-12T09:32:54;100857.83;;;18.46;84.88
24336;BME280;33098;52.400;16.880;2022-09-12T09:35:31;100858.73;;;18.53;84.61
24336;BME280;33098;52.400;16.880;2022-09-12T09:38:26;100858.94;;;18.58;83.95
24336;BME280;33098;52.400;16.880;2022-09-12T09:43:24;100853.97;;;18.62;83.03
24336;BME280;33098;52.400;16.880;2022-09-12T09:45:56;100852.88;;;18.65;82.62
24336;BME280;33098;52.400;16.880;2022-09-12T09:48:30;100852.29;;;18.76;82.43
24336;BME280;33098;52.400;16.880;2022-09-12T09:50:59;100853.53;;;18.85;81.98
24336;BME280;33098;52.400;16.880;2022-09-12T09:56:03;100851.55;;;18.97;81.12
24336;BME280;33098;52.400;16.880;2022-09-12T09:58:32;100854.00;;;19.06;80.90
24336;BME280;33098;52.400;16.880;2022-09-12T10:01:05;100849.46;;;19.16;80.10
24336;BME280;33098;52.400;16.880;2022-09-12T10:03:37;100852.55;;;19.27;80.08
24336;BME280;33098;52.400;16.880;2022-09-12T10:06:07;100847.75;;;19.43;79.78
24336;BME280;33098;52.400;16.880;2022-09-12T10:08:48;100847.59;;;19.65;79.15
24336;BME280;33098;52.400;16.880;2022-09-12T10:13:55;100848.27;;;19.96;77.78
24336;BME280;33098;52.400;16.880;2022-09-12T10:16:31;100852.30;;;20.17;77.54
24336;BME280;33098;52.400;16.880;2022-09-12T10:19:00;100847.98;;;20.26;76.94
24336;BME280;33098;52.400;16.880;2022-09-12T10:21:33;100850.56;;;20.32;76.63
24336;BME280;33098;52.400;16.880;2022-09-12T10:24:28;100854.56;;;20.43;76.33
24336;BME280;33098;52.400;16.880;2022-09-12T10:27:04;100849.55;;;20.46;75.81
24336;BME280;33098;52.400;16.880;2022-09-12T10:29:34;100847.72;;;20.46;75.05
24336;BME280;33098;52.400;16.880;2022-09-12T10:32:06;100842.44;;;20.50;74.90
24336;BME280;33098;52.400;16.880;2022-09-12T10:34:36;100841.90;;;20.56;74.54
24336;BME280;33098;52.400;16.880;2022-09-12T10:37:06;100841.89;;;20.64;74.35
24336;BME280;33098;52.400;16.880;2022-09-12T10:39:34;100845.41;;;20.69;73.83
24336;BME280;33098;52.400;16.880;2022-09-12T10:42:03;100841.27;;;20.69;73.40
24336;BME280;33098;52.400;16.880;2022-09-12T10:44:33;100840.39;;;20.67;73.18
24336;BME280;33098;52.400;16.880;2022-09-12T10:47:19;100836.61;;;20.74;72.91
24336;BME280;33098;52.400;16.880;2022-09-12T10:49:46;100834.14;;;20.88;72.81
24336;BME280;33098;52.400;16.880;2022-09-12T10:52:23;100832.98;;;21.00;72.80
24336;BME280;33098;52.400;16.880;2022-09-12T10:54:50;100829.94;;;21.16;72.31
24336;BME280;33098;52.400;16.880;2022-09-12T10:57:29;100824.85;;;21.30;72.03
24336;BME280;33098;52.400;16.880;2022-09-12T11:00:08;100821.92;;;21.47;71.28
24336;BME280;33098;52.400;16.880;2022-09-12T11:02:50;100817.45;;;21.62;70.68
24336;BME280;33098;52.400;16.880;2022-09-12T11:05:56;100818.59;;;21.83;70.31
24336;BME280;33098;52.400;16.880;2022-09-12T11:14:17;100812.86;;;21.79;67.73
24336;BME280;33098;52.400;16.880;2022-09-12T11:17:20;100815.94;;;21.78;67.99
24336;BME280;33098;52.400;16.880;2022-09-12T11:20:03;100814.31;;;21.87;66.76
24336;BME280;33098;52.400;16.880;2022-09-12T11:34:07;100813.77;;;22.33;64.92
24336;BME280;33098;52.400;16.880;2022-09-12T11:39:38;100817.20;;;22.18;63.79
24336;BME280;33098;52.400;16.880;2022-09-12T11:42:17;100813.70;;;22.22;63.61
24336;BME280;33098;52.400;16.880;2022-09-12T11:45:12;100821.25;;;22.19;62.72
24336;BME280;33098;52.400;16.880;2022-09-12T11:47:43;100817.69;;;22.17;62.02
24336;BME280;33098;52.400;16.880;2022-09-12T11:50:39;100812.41;;;22.28;62.97
24336;BME280;33098;52.400;16.880;2022-09-12T11:55:56;100814.21;;;22.77;62.84
24336;BME280;33098;52.400;16.880;2022-09-12T11:58:26;100817.02;;;22.68;61.46
24336;BME280;33098;52.400;16.880;2022-09-12T12:01:01;100816.94;;;22.56;62.24
24336;BME280;33098;52.400;16.880;2022-09-12T12:03:36;100814.71;;;22.48;61.90
24336;BME280;33098;52.400;16.880;2022-09-12T12:06:16;100815.32;;;22.46;61.72
24336;BME280;33098;52.400;16.880;2022-09-12T12:08:46;100811.92;;;22.48;61.67
24336;BME280;33098;52.400;16.880;2022-09-12T12:11:30;100812.73;;;22.49;61.39
24336;BME280;33098;52.400;16.880;2022-09-12T12:14:06;100816.52;;;22.48;61.20
24336;BME280;33098;52.400;16.880;2022-09-12T12:16:39;100811.31;;;22.46;61.11
24336;BME280;33098;52.400;16.880;2022-09-12T12:21:41;100813.16;;;22.38;60.98
24336;BME280;33098;52.400;16.880;2022-09-12T12:34:35;100814.38;;;21.74;60.82
24336;BME280;33098;52.400;16.880;2022-09-12T12:47:45;100805.19;;;21.56;61.83
24336;BME280;33098;52.400;16.880;2022-09-12T12:50:21;100808.17;;;21.63;61.67
24336;BME280;33098;52.400;16.880;2022-09-12T12:53:14;100805.91;;;21.71;61.69
24336;BME280;33098;52.400;16.880;2022-09-12T12:58:34;100799.23;;;21.77;61.51
24336;BME280;33098;52.400;16.880;2022-09-12T13:01:20;100795.41;;;21.83;61.43
24336;BME280;33098;52.400;16.880;2022-09-12T13:04:17;100798.44;;;21.91;61.18
24336;BME280;33098;52.400;16.880;2022-09-12T13:06:57;100790.08;;;21.97;61.03
24336;BME280;33098;52.400;16.880;2022-09-12T13:12:00;100783.73;;;22.00;60.58
24336;BME280;33098;52.400;16.880;2022-09-12T13:14:50;100782.82;;;21.95;60.46
24336;BME280;33098;52.400;16.880;2022-09-12T13:17:24;100782.89;;;21.88;60.43
24336;BME280;33098;52.400;16.880;2022-09-12T13:20:02;100781.67;;;21.79;60.33
24336;BME280;33098;52.400;16.880;2022-09-12T13:22:40;100785.96;;;21.72;60.44
24336;BME280;33098;52.400;16.880;2022-09-12T13:25:27;100781.70;;;21.65;60.31
24336;BME280;33098;52.400;16.880;2022-09-12T13:30:31;100787.15;;;21.48;60.09
24336;BME280;33098;52.400;16.880;2022-09-12T13:35:42;100780.13;;;21.32;60.40
24336;BME280;33098;52.400;16.880;2022-09-12T13:43:57;100776.98;;;21.09;60.57
24336;BME280;33098;52.400;16.880;2022-09-12T13:46:28;100777.59;;;21.03;60.82
24336;BME280;33098;52.400;16.880;2022-09-12T13:49:01;100776.82;;;20.99;60.91
24336;BME280;33098;52.400;16.880;2022-09-12T13:51:31;100780.24;;;20.95;60.89
24336;BME280;33098;52.400;16.880;2022-09-12T13:54:02;100780.73;;;20.90;61.02
24336;BME280;33098;52.400;16.880;2022-09-12T13:56:30;100783.38;;;20.87;61.48
24336;BME280;33098;52.400;16.880;2022-09-12T13:58:59;100781.40;;;20.81;61.56
24336;BME280;33098;52.400;16.880;2022-09-12T14:07:01;100776.47;;;20.82;62.17
24336;BME280;33098;52.400;16.880;2022-09-12T14:09:33;100773.36;;;20.90;62.23
24336;BME280;33098;52.400;16.880;2022-09-12T14:12:00;100767.98;;;20.99;62.22
24336;BME280;33098;52.400;16.880;2022-09-12T14:14:34;100767.95;;;21.07;62.50
24336;BME280;33098;52.400;16.880;2022-09-12T14:17:27;100769.80;;;21.18;62.63
24336;BME280;33098;52.400;16.880;2022-09-12T14:19:55;100765.86;;;21.27;62.51
24336;BME280;33098;52.400;16.880;2022-09-12T14:22:24;100765.01;;;21.28;62.26
24336;BME280;33098;52.400;16.880;2022-09-12T14:24:55;100765.54;;;21.28;62.31
24336;BME280;33098;52.400;16.880;2022-09-12T14:27:40;100764.71;;;21.28;62.25
24336;BME280;33098;52.400;16.880;2022-09-12T14:30:25;100764.33;;;21.17;62.00
24336;BME280;33098;52.400;16.880;2022-09-12T14:33:12;100758.69;;;21.03;61.92
24336;BME280;33098;52.400;16.880;2022-09-12T14:35:51;100754.20;;;20.98;62.38
24336;BME280;33098;52.400;16.880;2022-09-12T14:38:40;100752.60;;;20.95;62.35
24336;BME280;33098;52.400;16.880;2022-09-12T14:41:09;100752.08;;;20.92;62.27
24336;BME280;33098;52.400;16.880;2022-09-12T14:43:40;100751.23;;;20.91;62.53
24336;BME280;33098;52.400;16.880;2022-09-12T14:46:34;100746.37;;;20.91;62.34
24336;BME280;33098;52.400;16.880;2022-09-12T14:51:59;100747.39;;;20.87;62.38
24336;BME280;33098;52.400;16.880;2022-09-12T14:56:57;100748.44;;;20.86;62.65
24336;BME280;33098;52.400;16.880;2022-09-12T15:04:40;100744.40;;;20.65;61.56
24336;BME280;33098;52.400;16.880;2022-09-12T15:07:42;100745.77;;;20.59;61.90
24336;BME280;33098;52.400;16.880;2022-09-12T15:10:27;100747.38;;;20.61;62.01
24336;BME280;33098;52.400;16.880;2022-09-12T15:13:11;100753.06;;;20.64;62.19
24336;BME280;33098;52.400;16.880;2022-09-12T15:15:47;100754.25;;;20.68;62.08
24336;BME280;33098;52.400;16.880;2022-09-12T15:18:14;100747.80;;;20.66;61.97